sensor_id;sensor_type;location;lat;lon;timestamp;P1;durP1;ratioP1;P2;durP2;ratioP2
3085;SDS011;52812;48.960;9.108;2022-08-02T00:00:09;3.47;;;3.17;;
3085;SDS011;52812;48.960;9.108;2022-08-02T00:02:38;4.70;;;2.77;;
3085;SDS011;52812;48.960;9.108;2022-08-02T00:05:05;3.80;;;2.87;;
3085;SDS011;52812;48.960;9.108;2022-08-02T00:07:31;3.30;;;2.53;;
3085;SDS011;52812;48.960;9.108;2022-08-02T00:09:57;3.30;;;2.60;;
3085;SDS011;52812;48.960;9.108;2022-08-02T00:12:26;3.30;;;2.97;;
3085;SDS011;52812;48.960;9.108;2022-08-02T00:14:52;4.30;;;3.17;;
3085;SDS011;52812;48.960;9.108;2022-08-02T00:17:20;3.87;;;3.10;;
3085;SDS011;52812;48.960;9.108;2022-08-02T00:19:46;5.33;;;3.03;;
3085;SDS011;52812;48.960;9.108;2022-08-02T00:22:12;2.83;;;2.40;;
3085;SDS011;52812;48.960;9.108;2022-08-02T00:24:37;3.70;;;3.20;;
3085;SDS011;52812;48.960;9.108;2022-08-02T00:27:03;7.93;;;3.13;;
3085;SDS011;52812;48.960;9.108;2022-08-02T00:29:29;4.13;;;2.97;;
3085;SDS011;52812;48.960;9.108;2022-08-02T00:32:01;3.63;;;2.80;;
3085;SDS011;52812;48.960;9.108;2022-08-02T00:34:27;5.10;;;2.93;;
3085;SDS011;52812;48.960;9.108;2022-08-02T00:36:53;3.27;;;2.77;;
3085;SDS011;52812;48.960;9.108;2022-08-02T00:39:19;3.40;;;3.10;;
3085;SDS011;52812;48.960;9.108;2022-08-02T00:41:48;4.10;;;2.73;;
3085;SDS011;52812;48.960;9.108;2022-08-02T00:44:16;3.80;;;2.83;;
3085;SDS011;52812;48.960;9.108;2022-08-02T00:46:43;3.87;;;2.60;;
3085;SDS011;52812;48.960;9.108;2022-08-02T00:49:09;3.00;;;2.60;;
3085;SDS011;52812;48.960;9.108;2022-08-02T00:51:36;2.67;;;2.47;;
3085;SDS011;52812;48.960;9.108;2022-08-02T00:54:02;3.30;;;2.43;;
3085;SDS011;52812;48.960;9.108;2022-08-02T00:56:28;2.60;;;2.40;;
3085;SDS011;52812;48.960;9.108;2022-08-02T00:58:54;4.30;;;2.47;;
3085;SDS011;52812;48.960;9.108;2022-08-02T01:01:19;3.80;;;2.90;;
3085;SDS011;52812;48.960;9.108;2022-08-02T01:04:02;3.10;;;2.80;;
3085;SDS011;52812;48.960;9.108;2022-08-02T01:06:32;3.13;;;2.80;;
3085;SDS011;52812;48.960;9.108;2022-08-02T01:08:58;2.83;;;2.53;;
3085;SDS011;52812;48.960;9.108;2022-08-02T01:11:25;2.70;;;2.37;;
3085;SDS011;52812;48.960;9.108;2022-08-02T01:13:50;2.57;;;2.37;;
3085;SDS011;52812;48.960;9.108;2022-08-02T01:16:18;3.97;;;2.70;;
3085;SDS011;52812;48.960;9.108;2022-08-02T01:18:50;5.03;;;2.40;;
3085;SDS011;52812;48.960;9.108;2022-08-02T01:21:23;3.57;;;2.70;;
3085;SDS011;52812;48.960;9.108;2022-08-02T01:26:50;3.10;;;2.40;;
3085;SDS011;52812;48.960;9.108;2022-08-02T01:29:32;3.07;;;2.77;;
3085;SDS011;52812;48.960;9.108;2022-08-02T01:32:07;4.80;;;2.60;;
3085;SDS011;52812;48.960;9.108;2022-08-02T01:34:36;2.80;;;2.50;;
3085;SDS011;52812;48.960;9.108;2022-08-02T01:37:08;5.50;;;2.83;;
3085;SDS011;52812;48.960;9.108;2022-08-02T01:39:50;3.30;;;2.53;;
3085;SDS011;52812;48.960;9.108;2022-08-02T01:42:20;3.80;;;2.77;;
3085;SDS011;52812;48.960;9.108;2022-08-02T01:44:48;2.97;;;2.67;;
3085;SDS011;52812;48.960;9.108;2022-08-02T01:47:18;3.50;;;2.80;;
3085;SDS011;52812;48.960;9.108;2022-08-02T01:49:49;4.13;;;2.97;;
3085;SDS011;52812;48.960;9.108;2022-08-02T01:52:20;2.80;;;2.30;;
3085;SDS011;52812;48.960;9.108;2022-08-02T01:57:34;3.10;;;2.80;;
3085;SDS011;52812;48.960;9.108;2022-08-02T02:00:03;4.83;;;3.10;;
3085;SDS011;52812;48.960;9.108;2022-08-02T02:02:31;3.33;;;2.77;;
3085;SDS011;52812;48.960;9.108;2022-08-02T02:05:00;3.40;;;2.50;;
3085;SDS011;52812;48.960;9.108;2022-08-02T02:07:27;2.60;;;2.40;;
3085;SDS011;52812;48.960;9.108;2022-08-02T02:09:56;2.60;;;2.30;;
3085;SDS011;52812;48.960;9.108;2022-08-02T02:12:23;2.50;;;2.30;;
3085;SDS011;52812;48.960;9.108;2022-08-02T02:14:49;2.27;;;2.07;;
3085;SDS011;52812;48.960;9.108;2022-08-02T02:17:16;3.20;;;2.13;;
3085;SDS011;52812;48.960;9.108;2022-08-02T02:19:44;3.03;;;2.20;;
3085;SDS011;52812;48.960;9.108;2022-08-02T02:22:11;2.97;;;2.40;;
3085;SDS011;52812;48.960;9.108;2022-08-02T02:24:37;2.90;;;2.60;;
3085;SDS011;52812;48.960;9.108;2022-08-02T02:27:03;3.13;;;2.90;;
3085;SDS011;52812;48.960;9.108;2022-08-02T02:29:33;4.40;;;2.77;;
3085;SDS011;52812;48.960;9.108;2022-08-02T02:32:03;3.87;;;2.97;;
3085;SDS011;52812;48.960;9.108;2022-08-02T02:34:34;3.97;;;3.20;;
3085;SDS011;52812;48.960;9.108;2022-08-02T02:37:03;2.63;;;2.40;;
3085;SDS011;52812;48.960;9.108;2022-08-02T02:39:32;3.60;;;2.63;;
3085;SDS011;52812;48.960;9.108;2022-08-02T02:42:00;3.30;;;2.80;;
3085;SDS011;52812;48.960;9.108;2022-08-02T02:44:27;2.77;;;2.20;;
3085;SDS011;52812;48.960;9.108;2022-08-02T02:46:55;4.40;;;2.70;;
3085;SDS011;52812;48.960;9.108;2022-08-02T02:49:22;3.20;;;2.77;;
3085;SDS011;52812;48.960;9.108;2022-08-02T02:51:48;3.17;;;2.40;;
3085;SDS011;52812;48.960;9.108;2022-08-02T02:54:15;2.50;;;2.30;;
3085;SDS011;52812;48.960;9.108;2022-08-02T02:56:43;2.70;;;2.30;;
3085;SDS011;52812;48.960;9.108;2022-08-02T02:59:10;3.50;;;2.30;;
3085;SDS011;52812;48.960;9.108;2022-08-02T03:01:37;3.20;;;2.50;;
3085;SDS011;52812;48.960;9.108;2022-08-02T03:04:05;2.93;;;2.30;;
3085;SDS011;52812;48.960;9.108;2022-08-02T03:06:32;3.03;;;2.30;;
3085;SDS011;52812;48.960;9.108;2022-08-02T03:08:59;3.33;;;2.50;;
3085;SDS011;52812;48.960;9.108;2022-08-02T03:11:25;2.30;;;2.10;;
3085;SDS011;52812;48.960;9.108;2022-08-02T03:13:58;3.00;;;2.43;;
3085;SDS011;52812;48.960;9.108;2022-08-02T03:16:25;4.17;;;3.00;;
3085;SDS011;52812;48.960;9.108;2022-08-02T03:18:53;2.50;;;2.30;;
3085;SDS011;52812;48.960;9.108;2022-08-02T03:21:19;2.50;;;2.30;;
3085;SDS011;52812;48.960;9.108;2022-08-02T03:23:45;2.30;;;2.10;;
3085;SDS011;52812;48.960;9.108;2022-08-02T03:26:11;3.57;;;2.90;;
3085;SDS011;52812;48.960;9.108;2022-08-02T03:28:37;2.90;;;2.50;;
3085;SDS011;52812;48.960;9.108;2022-08-02T03:31:03;3.23;;;2.40;;
3085;SDS011;52812;48.960;9.108;2022-08-02T03:33:29;4.13;;;2.43;;
3085;SDS011;52812;48.960;9.108;2022-08-02T03:35:58;2.80;;;2.50;;
3085;SDS011;52812;48.960;9.108;2022-08-02T03:38:26;3.13;;;2.43;;
3085;SDS011;52812;48.960;9.108;2022-08-02T03:40:52;2.70;;;2.37;;
3085;SDS011;52812;48.960;9.108;2022-08-02T03:43:20;3.17;;;2.13;;
3085;SDS011;52812;48.960;9.108;2022-08-02T03:45:46;3.07;;;2.40;;
3085;SDS011;52812;48.960;9.108;2022-08-02T03:48:16;2.57;;;2.37;;
3085;SDS011;52812;48.960;9.108;2022-08-02T03:50:42;3.33;;;2.50;;
3085;SDS011;52812;48.960;9.108;2022-08-02T03:53:10;3.90;;;2.40;;
3085;SDS011;52812;48.960;9.108;2022-08-02T03:55:38;3.17;;;2.87;;
3085;SDS011;52812;48.960;9.108;2022-08-02T03:58:04;2.60;;;2.17;;
3085;SDS011;52812;48.960;9.108;2022-08-02T04:00:30;3.40;;;3.10;;
3085;SDS011;52812;48.960;9.108;2022-08-02T04:02:56;3.20;;;2.90;;
3085;SDS011;52812;48.960;9.108;2022-08-02T04:05:22;3.23;;;2.90;;
3085;SDS011;52812;48.960;9.108;2022-08-02T04:07:48;3.30;;;2.87;;
3085;SDS011;52812;48.960;9.108;2022-08-02T04:10:15;3.70;;;2.73;;
3085;SDS011;52812;48.960;9.108;2022-08-02T04:12:41;3.00;;;2.70;;
3085;SDS011;52812;48.960;9.108;2022-08-02T04:15:06;4.10;;;2.80;;
3085;SDS011;52812;48.960;9.108;2022-08-02T04:17:36;3.97;;;2.97;;
3085;SDS011;52812;48.960;9.108;2022-08-02T04:20:16;3.10;;;2.80;;
3085;SDS011;52812;48.960;9.108;2022-08-02T04:22:55;4.80;;;2.83;;
3085;SDS011;52812;48.960;9.108;2022-08-02T04:25:24;6.97;;;2.87;;
3085;SDS011;52812;48.960;9.108;2022-08-02T04:27:51;4.30;;;3.00;;
3085;SDS011;52812;48.960;9.108;2022-08-02T04:30:17;3.43;;;3.00;;
3085;SDS011;52812;48.960;9.108;2022-08-02T04:32:44;4.33;;;3.00;;
3085;SDS011;52812;48.960;9.108;2022-08-02T04:35:10;5.10;;;3.00;;
3085;SDS011;52812;48.960;9.108;2022-08-02T04:37:36;3.27;;;2.97;;
3085;SDS011;52812;48.960;9.108;2022-08-02T04:40:03;4.47;;;2.70;;
3085;SDS011;52812;48.960;9.108;2022-08-02T04:42:38;2.80;;;2.60;;
3085;SDS011;52812;48.960;9.108;2022-08-02T04:45:05;4.60;;;3.20;;
3085;SDS011;52812;48.960;9.108;2022-08-02T04:47:31;4.77;;;3.20;;
3085;SDS011;52812;48.960;9.108;2022-08-02T04:49:57;3.63;;;3.13;;
3085;SDS011;52812;48.960;9.108;2022-08-02T04:52:23;4.03;;;3.40;;
3085;SDS011;52812;48.960;9.108;2022-08-02T04:54:48;3.97;;;3.30;;
3085;SDS011;52812;48.960;9.108;2022-08-02T04:57:15;3.53;;;3.03;;
3085;SDS011;52812;48.960;9.108;2022-08-02T05:00:00;4.30;;;3.67;;
3085;SDS011;52812;48.960;9.108;2022-08-02T05:02:26;4.30;;;3.50;;
3085;SDS011;52812;48.960;9.108;2022-08-02T05:04:51;7.93;;;3.13;;
3085;SDS011;52812;48.960;9.108;2022-08-02T05:07:17;3.50;;;2.70;;
3085;SDS011;52812;48.960;9.108;2022-08-02T05:09:42;3.23;;;2.70;;
3085;SDS011;52812;48.960;9.108;2022-08-02T05:12:08;3.83;;;2.60;;
3085;SDS011;52812;48.960;9.108;2022-08-02T05:14:34;4.00;;;3.30;;
3085;SDS011;52812;48.960;9.108;2022-08-02T05:16:59;4.60;;;3.43;;
3085;SDS011;52812;48.960;9.108;2022-08-02T05:19:25;5.57;;;3.40;;
3085;SDS011;52812;48.960;9.108;2022-08-02T05:21:50;4.27;;;3.47;;
3085;SDS011;52812;48.960;9.108;2022-08-02T05:24:16;3.73;;;3.33;;
3085;SDS011;52812;48.960;9.108;2022-08-02T05:26:42;4.20;;;3.30;;
3085;SDS011;52812;48.960;9.108;2022-08-02T05:29:07;4.50;;;3.10;;
3085;SDS011;52812;48.960;9.108;2022-08-02T05:31:33;4.27;;;3.13;;
3085;SDS011;52812;48.960;9.108;2022-08-02T05:33:58;4.70;;;3.10;;
3085;SDS011;52812;48.960;9.108;2022-08-02T05:36:24;4.27;;;3.37;;
3085;SDS011;52812;48.960;9.108;2022-08-02T05:38:50;6.00;;;3.27;;
3085;SDS011;52812;48.960;9.108;2022-08-02T05:41:19;4.07;;;3.60;;
3085;SDS011;52812;48.960;9.108;2022-08-02T05:43:46;5.67;;;4.00;;
3085;SDS011;52812;48.960;9.108;2022-08-02T05:46:11;4.03;;;3.60;;
3085;SDS011;52812;48.960;9.108;2022-08-02T05:48:37;5.73;;;4.20;;
3085;SDS011;52812;48.960;9.108;2022-08-02T05:51:04;4.53;;;3.50;;
3085;SDS011;52812;48.960;9.108;2022-08-02T05:53:36;6.70;;;3.47;;
3085;SDS011;52812;48.960;9.108;2022-08-02T05:59:02;3.77;;;2.83;;
3085;SDS011;52812;48.960;9.108;2022-08-02T06:01:34;3.40;;;3.10;;
3085;SDS011;52812;48.960;9.108;2022-08-02T06:04:08;5.37;;;3.07;;
3085;SDS011;52812;48.960;9.108;2022-08-02T06:06:35;3.47;;;3.17;;
3085;SDS011;52812;48.960;9.108;2022-08-02T06:09:23;5.37;;;3.20;;
3085;SDS011;52812;48.960;9.108;2022-08-02T06:11:49;3.53;;;3.23;;
3085;SDS011;52812;48.960;9.108;2022-08-02T06:14:17;3.47;;;3.17;;
3085;SDS011;52812;48.960;9.108;2022-08-02T06:16:43;3.83;;;3.40;;
3085;SDS011;52812;48.960;9.108;2022-08-02T06:19:13;6.77;;;3.27;;
3085;SDS011;52812;48.960;9.108;2022-08-02T06:21:41;3.10;;;2.57;;
3085;SDS011;52812;48.960;9.108;2022-08-02T06:24:09;4.87;;;3.00;;
3085;SDS011;52812;48.960;9.108;2022-08-02T06:26:36;3.20;;;2.90;;
3085;SDS011;52812;48.960;9.108;2022-08-02T06:29:03;3.60;;;3.30;;
3085;SDS011;52812;48.960;9.108;2022-08-02T06:31:29;3.53;;;3.23;;
3085;SDS011;52812;48.960;9.108;2022-08-02T06:33:55;4.40;;;3.40;;
3085;SDS011;52812;48.960;9.108;2022-08-02T06:39:02;6.60;;;3.97;;
3085;SDS011;52812;48.960;9.108;2022-08-02T06:41:39;6.00;;;4.30;;
3085;SDS011;52812;48.960;9.108;2022-08-02T06:44:11;3.77;;;3.47;;
3085;SDS011;52812;48.960;9.108;2022-08-02T06:46:37;4.57;;;4.17;;
3085;SDS011;52812;48.960;9.108;2022-08-02T06:49:03;4.23;;;3.83;;
3085;SDS011;52812;48.960;9.108;2022-08-02T06:51:28;4.80;;;4.10;;
3085;SDS011;52812;48.960;9.108;2022-08-02T06:53:54;4.40;;;3.90;;
3085;SDS011;52812;48.960;9.108;2022-08-02T06:56:20;7.90;;;3.73;;
3085;SDS011;52812;48.960;9.108;2022-08-02T06:58:46;6.10;;;3.80;;
3085;SDS011;52812;48.960;9.108;2022-08-02T07:01:12;3.90;;;3.37;;
3085;SDS011;52812;48.960;9.108;2022-08-02T07:03:38;4.23;;;3.80;;
3085;SDS011;52812;48.960;9.108;2022-08-02T07:06:05;4.47;;;4.07;;
3085;SDS011;52812;48.960;9.108;2022-08-02T07:08:35;4.53;;;3.90;;
3085;SDS011;52812;48.960;9.108;2022-08-02T07:11:05;4.60;;;4.20;;
3085;SDS011;52812;48.960;9.108;2022-08-02T07:13:32;3.90;;;3.60;;
3085;SDS011;52812;48.960;9.108;2022-08-02T07:15:58;3.60;;;3.30;;
3085;SDS011;52812;48.960;9.108;2022-08-02T07:18:23;3.83;;;3.50;;
3085;SDS011;52812;48.960;9.108;2022-08-02T07:20:49;4.30;;;3.60;;
3085;SDS011;52812;48.960;9.108;2022-08-02T07:23:16;5.20;;;3.80;;
3085;SDS011;52812;48.960;9.108;2022-08-02T07:25:41;4.47;;;4.07;;
3085;SDS011;52812;48.960;9.108;2022-08-02T07:28:08;4.80;;;4.40;;
3085;SDS011;52812;48.960;9.108;2022-08-02T07:30:35;4.13;;;3.73;;
3085;SDS011;52812;48.960;9.108;2022-08-02T07:33:01;6.03;;;3.60;;
3085;SDS011;52812;48.960;9.108;2022-08-02T07:35:27;4.20;;;3.80;;
3085;SDS011;52812;48.960;9.108;2022-08-02T07:37:53;4.73;;;4.13;;
3085;SDS011;52812;48.960;9.108;2022-08-02T07:40:19;5.43;;;4.50;;
3085;SDS011;52812;48.960;9.108;2022-08-02T07:42:45;4.00;;;3.60;;
3085;SDS011;52812;48.960;9.108;2022-08-02T07:45:18;5.00;;;3.90;;
3085;SDS011;52812;48.960;9.108;2022-08-02T07:47:45;4.37;;;3.97;;
3085;SDS011;52812;48.960;9.108;2022-08-02T07:50:12;4.00;;;3.57;;
3085;SDS011;52812;48.960;9.108;2022-08-02T07:52:39;6.47;;;3.70;;
3085;SDS011;52812;48.960;9.108;2022-08-02T07:55:06;4.63;;;4.03;;
3085;SDS011;52812;48.960;9.108;2022-08-02T07:57:32;4.30;;;3.77;;
3085;SDS011;52812;48.960;9.108;2022-08-02T07:59:58;3.93;;;3.63;;
3085;SDS011;52812;48.960;9.108;2022-08-02T08:02:24;4.10;;;3.80;;
3085;SDS011;52812;48.960;9.108;2022-08-02T08:04:50;4.10;;;3.53;;
3085;SDS011;52812;48.960;9.108;2022-08-02T08:07:16;4.00;;;3.60;;
3085;SDS011;52812;48.960;9.108;2022-08-02T08:09:42;4.10;;;3.70;;
3085;SDS011;52812;48.960;9.108;2022-08-02T08:12:08;5.50;;;3.63;;
3085;SDS011;52812;48.960;9.108;2022-08-02T08:14:34;3.97;;;3.50;;
3085;SDS011;52812;48.960;9.108;2022-08-02T08:17:00;4.30;;;3.50;;
3085;SDS011;52812;48.960;9.108;2022-08-02T08:19:26;3.87;;;3.53;;
3085;SDS011;52812;48.960;9.108;2022-08-02T08:21:51;3.90;;;3.37;;
3085;SDS011;52812;48.960;9.108;2022-08-02T08:24:17;4.70;;;3.60;;
3085;SDS011;52812;48.960;9.108;2022-08-02T08:26:42;3.83;;;3.53;;
3085;SDS011;52812;48.960;9.108;2022-08-02T08:29:08;6.27;;;3.43;;
3085;SDS011;52812;48.960;9.108;2022-08-02T08:31:34;3.20;;;3.00;;
3085;SDS011;52812;48.960;9.108;2022-08-02T08:34:00;3.60;;;3.30;;
3085;SDS011;52812;48.960;9.108;2022-08-02T08:36:26;4.67;;;3.70;;
3085;SDS011;52812;48.960;9.108;2022-08-02T08:38:52;5.30;;;3.30;;
3085;SDS011;52812;48.960;9.108;2022-08-02T08:41:18;4.37;;;3.70;;
3085;SDS011;52812;48.960;9.108;2022-08-02T08:43:45;3.70;;;3.40;;
3085;SDS011;52812;48.960;9.108;2022-08-02T08:46:17;3.47;;;3.17;;
3085;SDS011;52812;48.960;9.108;2022-08-02T08:48:52;3.63;;;3.30;;
3085;SDS011;52812;48.960;9.108;2022-08-02T08:51:23;3.77;;;3.37;;
3085;SDS011;52812;48.960;9.108;2022-08-02T08:53:51;3.60;;;3.30;;
3085;SDS011;52812;48.960;9.108;2022-08-02T08:56:20;3.10;;;2.90;;
3085;SDS011;52812;48.960;9.108;2022-08-02T08:58:47;4.33;;;2.60;;
3085;SDS011;52812;48.960;9.108;2022-08-02T09:01:12;3.53;;;3.20;;
3085;SDS011;52812;48.960;9.108;2022-08-02T09:03:40;3.13;;;2.93;;
3085;SDS011;52812;48.960;9.108;2022-08-02T09:06:07;3.67;;;3.37;;
3085;SDS011;52812;48.960;9.108;2022-08-02T09:08:32;4.10;;;3.67;;
3085;SDS011;52812;48.960;9.108;2022-08-02T09:10:58;3.93;;;3.53;;
3085;SDS011;52812;48.960;9.108;2022-08-02T09:13:24;3.40;;;3.10;;
3085;SDS011;52812;48.960;9.108;2022-08-02T09:15:55;4.20;;;3.80;;
3085;SDS011;52812;48.960;9.108;2022-08-02T09:18:35;3.80;;;3.40;;
3085;SDS011;52812;48.960;9.108;2022-08-02T09:21:04;6.10;;;3.50;;
3085;SDS011;52812;48.960;9.108;2022-08-02T09:23:41;3.47;;;3.17;;
3085;SDS011;52812;48.960;9.108;2022-08-02T09:26:11;8.53;;;3.57;;
3085;SDS011;52812;48.960;9.108;2022-08-02T09:28:39;4.00;;;3.63;;
3085;SDS011;52812;48.960;9.108;2022-08-02T09:31:08;3.83;;;3.43;;
3085;SDS011;52812;48.960;9.108;2022-08-02T09:33:35;4.23;;;3.83;;
3085;SDS011;52812;48.960;9.108;2022-08-02T09:36:04;5.63;;;3.60;;
3085;SDS011;52812;48.960;9.108;2022-08-02T09:38:34;4.23;;;3.80;;
3085;SDS011;52812;48.960;9.108;2022-08-02T09:41:01;6.30;;;3.77;;
3085;SDS011;52812;48.960;9.108;2022-08-02T09:48:54;4.67;;;4.10;;
3085;SDS011;52812;48.960;9.108;2022-08-02T09:53:51;6.27;;;4.10;;
3085;SDS011;52812;48.960;9.108;2022-08-02T09:56:19;4.13;;;3.73;;
3085;SDS011;52812;48.960;9.108;2022-08-02T09:58:47;3.77;;;3.47;;
3085;SDS011;52812;48.960;9.108;2022-08-02T10:01:13;4.80;;;4.33;;
3085;SDS011;52812;48.960;9.108;2022-08-02T10:03:53;4.23;;;3.80;;
3085;SDS011;52812;48.960;9.108;2022-08-02T10:06:20;5.20;;;3.63;;
3085;SDS011;52812;48.960;9.108;2022-08-02T10:08:45;6.13;;;3.53;;
3085;SDS011;52812;48.960;9.108;2022-08-02T10:11:11;5.30;;;4.03;;
3085;SDS011;52812;48.960;9.108;2022-08-02T10:13:38;4.87;;;4.37;;
3085;SDS011;52812;48.960;9.108;2022-08-02T10:16:03;4.43;;;4.03;;
3085;SDS011;52812;48.960;9.108;2022-08-02T10:18:31;4.00;;;3.60;;
3085;SDS011;52812;48.960;9.108;2022-08-02T10:20:56;4.33;;;3.63;;
3085;SDS011;52812;48.960;9.108;2022-08-02T10:23:25;5.13;;;4.23;;
3085;SDS011;52812;48.960;9.108;2022-08-02T10:25:53;4.77;;;4.20;;
3085;SDS011;52812;48.960;9.108;2022-08-02T10:28:25;4.80;;;4.17;;
3085;SDS011;52812;48.960;9.108;2022-08-02T10:30:55;4.30;;;3.90;;
3085;SDS011;52812;48.960;9.108;2022-08-02T10:33:23;4.40;;;4.00;;
3085;SDS011;52812;48.960;9.108;2022-08-02T10:35:51;4.83;;;4.33;;
3085;SDS011;52812;48.960;9.108;2022-08-02T10:38:21;4.37;;;3.77;;
3085;SDS011;52812;48.960;9.108;2022-08-02T10:40:52;4.80;;;4.20;;
3085;SDS011;52812;48.960;9.108;2022-08-02T10:54:37;4.83;;;4.10;;
3085;SDS011;52812;48.960;9.108;2022-08-02T11:00:10;4.37;;;3.70;;
3085;SDS011;52812;48.960;9.108;2022-08-02T11:02:43;4.20;;;3.80;;
3085;SDS011;52812;48.960;9.108;2022-08-02T11:05:24;4.10;;;3.70;;
3085;SDS011;52812;48.960;9.108;2022-08-02T11:07:55;3.53;;;3.23;;
3085;SDS011;52812;48.960;9.108;2022-08-02T11:13:12;3.60;;;3.30;;
3085;SDS011;52812;48.960;9.108;2022-08-02T11:16:12;4.43;;;4.03;;
3085;SDS011;52812;48.960;9.108;2022-08-02T11:23:48;4.00;;;3.60;;
3085;SDS011;52812;48.960;9.108;2022-08-02T11:28:54;4.10;;;3.70;;
3085;SDS011;52812;48.960;9.108;2022-08-02T11:31:24;4.50;;;3.53;;
3085;SDS011;52812;48.960;9.108;2022-08-02T11:33:50;4.20;;;3.80;;
3085;SDS011;52812;48.960;9.108;2022-08-02T11:36:16;6.60;;;3.80;;
3085;SDS011;52812;48.960;9.108;2022-08-02T11:38:42;4.07;;;3.70;;
3085;SDS011;52812;48.960;9.108;2022-08-02T11:41:09;4.37;;;3.97;;
3085;SDS011;52812;48.960;9.108;2022-08-02T11:43:47;4.73;;;3.60;;
3085;SDS011;52812;48.960;9.108;2022-08-02T11:46:18;4.20;;;3.80;;
3085;SDS011;52812;48.960;9.108;2022-08-02T11:48:44;4.27;;;3.50;;
3085;SDS011;52812;48.960;9.108;2022-08-02T11:51:14;4.10;;;3.80;;
3085;SDS011;52812;48.960;9.108;2022-08-02T11:56:07;3.63;;;3.33;;
3085;SDS011;52812;48.960;9.108;2022-08-02T11:58:34;3.40;;;3.10;;
3085;SDS011;52812;48.960;9.108;2022-08-02T12:01:00;3.07;;;2.77;;
3085;SDS011;52812;48.960;9.108;2022-08-02T12:03:26;4.67;;;3.30;;
3085;SDS011;52812;48.960;9.108;2022-08-02T12:05:51;3.80;;;3.40;;
3085;SDS011;52812;48.960;9.108;2022-08-02T12:08:17;5.83;;;3.33;;
3085;SDS011;52812;48.960;9.108;2022-08-02T12:10:47;3.70;;;3.40;;
3085;SDS011;52812;48.960;9.108;2022-08-02T12:13:13;3.17;;;2.73;;
3085;SDS011;52812;48.960;9.108;2022-08-02T12:15:40;2.90;;;2.70;;
3085;SDS011;52812;48.960;9.108;2022-08-02T12:18:13;4.63;;;2.67;;
3085;SDS011;52812;48.960;9.108;2022-08-02T12:20:58;2.90;;;2.70;;
3085;SDS011;52812;48.960;9.108;2022-08-02T12:23:25;3.60;;;2.93;;
3085;SDS011;52812;48.960;9.108;2022-08-02T12:26:04;2.70;;;2.50;;
3085;SDS011;52812;48.960;9.108;2022-08-02T12:28:34;3.20;;;2.90;;
3085;SDS011;52812;48.960;9.108;2022-08-02T12:31:03;2.93;;;2.60;;
3085;SDS011;52812;48.960;9.108;2022-08-02T12:33:43;3.40;;;3.10;;
3085;SDS011;52812;48.960;9.108;2022-08-02T12:36:16;3.50;;;3.20;;
3085;SDS011;52812;48.960;9.108;2022-08-02T12:38:56;3.80;;;3.10;;
3085;SDS011;52812;48.960;9.108;2022-08-02T12:41:23;3.30;;;3.00;;
3085;SDS011;52812;48.960;9.108;2022-08-02T12:43:51;3.20;;;2.90;;
3085;SDS011;52812;48.960;9.108;2022-08-02T12:46:18;3.40;;;3.10;;
3085;SDS011;52812;48.960;9.108;2022-08-02T12:48:45;3.50;;;3.20;;
3085;SDS011;52812;48.960;9.108;2022-08-02T12:53:53;3.67;;;3.07;;
3085;SDS011;52812;48.960;9.108;2022-08-02T12:56:28;3.57;;;3.27;;
3085;SDS011;52812;48.960;9.108;2022-08-02T12:58:56;3.20;;;2.90;;
3085;SDS011;52812;48.960;9.108;2022-08-02T13:01:23;3.30;;;3.00;;
3085;SDS011;52812;48.960;9.108;2022-08-02T13:03:50;3.53;;;3.20;;
3085;SDS011;52812;48.960;9.108;2022-08-02T13:06:17;3.33;;;3.03;;
3085;SDS011;52812;48.960;9.108;2022-08-02T13:08:43;3.40;;;3.13;;
3085;SDS011;52812;48.960;9.108;2022-08-02T13:11:09;3.30;;;3.00;;
3085;SDS011;52812;48.960;9.108;2022-08-02T13:13:35;3.40;;;3.10;;
3085;SDS011;52812;48.960;9.108;2022-08-02T13:16:01;2.93;;;2.60;;
3085;SDS011;52812;48.960;9.108;2022-08-02T13:18:26;3.07;;;2.87;;
3085;SDS011;52812;48.960;9.108;2022-08-02T13:20:52;3.27;;;2.73;;
3085;SDS011;52812;48.960;9.108;2022-08-02T13:23:17;3.53;;;3.23;;
3085;SDS011;52812;48.960;9.108;2022-08-02T13:25:43;3.60;;;3.30;;
3085;SDS011;52812;48.960;9.108;2022-08-02T13:28:09;3.50;;;3.07;;
3085;SDS011;52812;48.960;9.108;2022-08-02T13:30:35;5.93;;;3.53;;
3085;SDS011;52812;48.960;9.108;2022-08-02T13:33:01;3.33;;;2.90;;
3085;SDS011;52812;48.960;9.108;2022-08-02T13:35:27;4.37;;;3.70;;
3085;SDS011;52812;48.960;9.108;2022-08-02T13:37:53;3.50;;;3.13;;
3085;SDS011;52812;48.960;9.108;2022-08-02T13:40:18;5.93;;;3.00;;
3085;SDS011;52812;48.960;9.108;2022-08-02T13:42:45;3.40;;;3.10;;
3085;SDS011;52812;48.960;9.108;2022-08-02T13:45:30;4.83;;;3.37;;
3085;SDS011;52812;48.960;9.108;2022-08-02T13:51:34;3.10;;;2.80;;
3085;SDS011;52812;48.960;9.108;2022-08-02T13:53:59;7.10;;;3.60;;
3085;SDS011;52812;48.960;9.108;2022-08-02T13:56:25;3.10;;;2.90;;
3085;SDS011;52812;48.960;9.108;2022-08-02T13:58:51;3.67;;;3.27;;
3085;SDS011;52812;48.960;9.108;2022-08-02T14:01:17;3.30;;;3.00;;
3085;SDS011;52812;48.960;9.108;2022-08-02T14:03:42;4.40;;;3.13;;
3085;SDS011;52812;48.960;9.108;2022-08-02T14:06:08;3.50;;;3.10;;
3085;SDS011;52812;48.960;9.108;2022-08-02T14:08:34;3.20;;;2.90;;
3085;SDS011;52812;48.960;9.108;2022-08-02T14:11:02;3.03;;;2.83;;
3085;SDS011;52812;48.960;9.108;2022-08-02T14:13:28;3.20;;;2.93;;
3085;SDS011;52812;48.960;9.108;2022-08-02T14:15:53;4.83;;;3.00;;
3085;SDS011;52812;48.960;9.108;2022-08-02T14:18:20;5.97;;;3.00;;
3085;SDS011;52812;48.960;9.108;2022-08-02T14:20:46;3.03;;;2.83;;
3085;SDS011;52812;48.960;9.108;2022-08-02T14:23:11;3.50;;;3.20;;
3085;SDS011;52812;48.960;9.108;2022-08-02T14:25:37;3.70;;;3.20;;
3085;SDS011;52812;48.960;9.108;2022-08-02T14:28:03;3.30;;;3.00;;
3085;SDS011;52812;48.960;9.108;2022-08-02T14:30:29;3.23;;;3.03;;
3085;SDS011;52812;48.960;9.108;2022-08-02T14:32:55;3.63;;;3.33;;
3085;SDS011;52812;48.960;9.108;2022-08-02T14:35:20;3.40;;;3.10;;
3085;SDS011;52812;48.960;9.108;2022-08-02T14:37:46;3.37;;;3.00;;
3085;SDS011;52812;48.960;9.108;2022-08-02T14:40:12;3.40;;;3.10;;
3085;SDS011;52812;48.960;9.108;2022-08-02T14:42:38;3.17;;;2.97;;
3085;SDS011;52812;48.960;9.108;2022-08-02T14:45:07;3.50;;;3.20;;
3085;SDS011;52812;48.960;9.108;2022-08-02T14:47:33;3.40;;;3.10;;
3085;SDS011;52812;48.960;9.108;2022-08-02T14:49:59;3.30;;;3.07;;
3085;SDS011;52812;48.960;9.108;2022-08-02T14:52:24;3.10;;;2.90;;
3085;SDS011;52812;48.960;9.108;2022-08-02T14:54:50;6.60;;;3.30;;
3085;SDS011;52812;48.960;9.108;2022-08-02T14:57:16;3.40;;;3.10;;
3085;SDS011;52812;48.960;9.108;2022-08-02T14:59:42;3.33;;;2.83;;
3085;SDS011;52812;48.960;9.108;2022-08-02T15:02:07;6.00;;;3.13;;
3085;SDS011;52812;48.960;9.108;2022-08-02T15:04:33;3.87;;;3.10;;
3085;SDS011;52812;48.960;9.108;2022-08-02T15:06:59;3.10;;;2.90;;
3085;SDS011;52812;48.960;9.108;2022-08-02T15:09:25;3.00;;;2.67;;
3085;SDS011;52812;48.960;9.108;2022-08-02T15:11:52;2.80;;;2.60;;
3085;SDS011;52812;48.960;9.108;2022-08-02T15:14:19;3.00;;;2.80;;
3085;SDS011;52812;48.960;9.108;2022-08-02T15:16:45;3.10;;;2.80;;
3085;SDS011;52812;48.960;9.108;2022-08-02T15:19:11;3.03;;;2.80;;
3085;SDS011;52812;48.960;9.108;2022-08-02T15:21:37;3.37;;;3.07;;
3085;SDS011;52812;48.960;9.108;2022-08-02T15:24:02;3.30;;;3.00;;
3085;SDS011;52812;48.960;9.108;2022-08-02T15:26:28;6.77;;;2.93;;
3085;SDS011;52812;48.960;9.108;2022-08-02T15:28:54;3.10;;;2.90;;
3085;SDS011;52812;48.960;9.108;2022-08-02T15:31:21;8.63;;;2.87;;
3085;SDS011;52812;48.960;9.108;2022-08-02T15:33:47;3.50;;;2.90;;
3085;SDS011;52812;48.960;9.108;2022-08-02T15:36:14;3.40;;;2.80;;
3085;SDS011;52812;48.960;9.108;2022-08-02T15:38:40;3.00;;;2.80;;
3085;SDS011;52812;48.960;9.108;2022-08-02T15:41:06;2.90;;;2.70;;
3085;SDS011;52812;48.960;9.108;2022-08-02T15:43:33;3.20;;;2.90;;
3085;SDS011;52812;48.960;9.108;2022-08-02T15:45:59;3.47;;;3.17;;
3085;SDS011;52812;48.960;9.108;2022-08-02T15:48:25;2.80;;;2.60;;
3085;SDS011;52812;48.960;9.108;2022-08-02T15:50:50;3.00;;;2.80;;
3085;SDS011;52812;48.960;9.108;2022-08-02T15:53:16;3.57;;;2.63;;
3085;SDS011;52812;48.960;9.108;2022-08-02T15:55:42;2.90;;;2.70;;